Time;durP1;ratioP1;P1;durP2;ratioP2;P2;SDS_P1;SDS_P2;PMS_P1;PMS_P2;Temp;Humidity;BMP_temperature;BMP_pressure;BME280_temperature;BME280_humidity;BME280_pressure;Samples;Min_cycle;Max_cycle;Signal;HPM_P1;HPM_P2
2022/01/24 00:00:53;;;;;;;19.83;10.05;;;;;;;;;;5149472;27;20142;-62
2022/01/24 00:03:20;;;;;;;19.88;10.68;;;;;;;;;;5143489;27;20528;-62
2022/01/24 00:05:46;;;;;;;19.75;10.35;;;;;;;;;;5134651;27;20138;-62
2022/01/24 00:08:12;;;;;;;21.33;10.60;;;;;;;;;;5144992;27;20039;-62
2022/01/24 00:10:40;;;;;;;20.30;11.10;;;;;;;;;;5146550;27;20211;-63
2022/01/24 00:18:27;;;;;;;22.75;11.48;;;;;;;;;;5134888;27;20066;-62
2022/01/24 00:26:46;;;;;;;22.83;11.10;;;;;;;;;;5154777;27;20516;-62
2022/01/24 00:29:16;;;;;;;19.17;10.20;;;;;;;;;;5149001;27;20056;-63
2022/01/24 00:31:43;;;;;;;20.83;10.38;;;;;;;;;;5132973;27;20047;-62
2022/01/24 00:34:09;;;;;;;21.27;10.50;;;;;;;;;;5133395;27;20057;-62
2022/01/24 00:36:37;;;;;;;20.85;10.57;;;;;;;;;;5133643;27;20060;-62
2022/01/24 00:39:04;;;;;;;23.63;10.53;;;;;;;;;;5132929;27;20048;-62
2022/01/24 00:41:37;;;;;;;20.60;11.23;;;;;;;;;;5133318;27;20639;-62
2022/01/24 00:44:32;;;;;;;23.13;10.65;;;;;;;;;;5132578;27;20050;-62
2022/01/24 00:47:00;;;;;;;18.35;10.27;;;;;;;;;;5132708;27;20051;-62
2022/01/24 00:49:48;;;;;;;20.40;10.02;;;;;;;;;;5132600;27;20043;-62
2022/01/24 00:55:00;;;;;;;19.10;9.73;;;;;;;;;;5132598;27;20569;-62
2022/01/24 00:57:27;;;;;;;19.13;9.68;;;;;;;;;;5155415;27;20086;-62
2022/01/24 00:59:53;;;;;;;17.17;8.95;;;;;;;;;;5174015;27;20568;-62
2022/01/24 01:02:19;;;;;;;19.52;9.30;;;;;;;;;;5166432;27;20055;-62
2022/01/24 01:07:24;;;;;;;19.35;9.70;;;;;;;;;;5138726;27;20109;-62
2022/01/24 01:18:09;;;;;;;22.83;12.20;;;;;;;;;;5135676;27;20058;-62
2022/01/24 01:21:07;;;;;;;24.02;12.40;;;;;;;;;;5138300;27;20521;-62
2022/01/24 01:23:22;;;;;;;22.08;12.25;;;;;;;;;;5146700;27;20096;-62
2022/01/24 01:25:50;;;;;;;23.73;12.45;;;;;;;;;;5139988;27;20517;-62
2022/01/24 01:28:17;;;;;;;23.20;11.83;;;;;;;;;;5132259;27;20047;-62
2022/01/24 01:30:47;;;;;;;26.23;11.60;;;;;;;;;;5132208;27;20255;-62
2022/01/24 01:33:58;;;;;;;25.65;12.60;;;;;;;;;;5137803;27;20048;-62
2022/01/24 01:38:49;;;;;;;20.92;11.63;;;;;;;;;;5152675;27;20054;-62
2022/01/24 01:52:23;;;;;;;24.65;11.82;;;;;;;;;;5142984;27;20071;-62
2022/01/24 01:57:52;;;;;;;25.92;12.55;;;;;;;;;;5141642;27;20055;-62
2022/01/24 02:00:19;;;;;;;24.15;11.73;;;;;;;;;;5135636;27;20047;-62
2022/01/24 02:02:46;;;;;;;24.17;11.90;;;;;;;;;;5142519;27;20141;-63
2022/01/24 02:05:12;;;;;;;24.90;12.68;;;;;;;;;;5142127;27;20524;-62
2022/01/24 02:07:46;;;;;;;24.45;13.07;;;;;;;;;;5131692;27;20106;-62
2022/01/24 02:10:13;;;;;;;25.75;13.30;;;;;;;;;;5148690;27;20043;-62
2022/01/24 02:12:39;;;;;;;25.38;12.38;;;;;;;;;;5135118;27;20058;-62
2022/01/24 02:15:06;;;;;;;24.90;12.90;;;;;;;;;;5117720;27;20065;-62
2022/01/24 02:17:50;;;;;;;23.60;12.00;;;;;;;;;;5130805;27;20056;-62
2022/01/24 02:23:19;;;;;;;26.10;12.68;;;;;;;;;;5129955;27;20430;-62
2022/01/24 02:25:45;;;;;;;26.35;13.88;;;;;;;;;;5148905;27;20153;-62
2022/01/24 02:28:13;;;;;;;25.10;12.73;;;;;;;;;;5139340;27;20051;-63
2022/01/24 02:33:24;;;;;;;27.38;14.00;;;;;;;;;;5138855;27;20044;-62
2022/01/24 02:35:51;;;;;;;26.15;13.55;;;;;;;;;;5139758;27;20268;-62
2022/01/24 02:38:32;;;;;;;26.05;12.85;;;;;;;;;;5130265;27;20066;-62
2022/01/24 02:49:14;;;;;;;28.00;12.70;;;;;;;;;;5133198;27;20138;-62
2022/01/24 02:51:49;;;;;;;27.50;13.45;;;;;;;;;;5140011;27;20142;-62
2022/01/24 02:54:17;;;;;;;27.55;14.40;;;;;;;;;;5152321;27;20040;-61
2022/01/24 02:56:43;;;;;;;28.33;13.47;;;;;;;;;;5138151;27;20040;-61
2022/01/24 02:59:09;;;;;;;27.42;13.32;;;;;;;;;;5130163;27;20736;-62
2022/01/24 03:01:39;;;;;;;25.20;13.38;;;;;;;;;;5142365;27;20047;-62
2022/01/24 03:04:05;;;;;;;26.85;14.13;;;;;;;;;;5133664;27;20058;-63
2022/01/24 03:06:32;;;;;;;29.08;13.95;;;;;;;;;;5130405;27;20062;-61
2022/01/24 03:08:58;;;;;;;23.83;12.82;;;;;;;;;;5145959;27;20514;-62
2022/01/24 03:11:27;;;;;;;27.20;13.20;;;;;;;;;;5134512;27;20051;-62
2022/01/24 03:13:54;;;;;;;25.85;13.23;;;;;;;;;;5136287;27;20047;-62
2022/01/24 03:16:20;;;;;;;24.23;12.38;;;;;;;;;;5151628;27;20110;-62
2022/01/24 03:18:46;;;;;;;26.52;13.88;;;;;;;;;;5140430;27;20056;-62
2022/01/24 03:21:13;;;;;;;27.73;13.30;;;;;;;;;;5148901;27;20058;-61
2022/01/24 03:23:40;;;;;;;26.33;13.00;;;;;;;;;;5151292;27;20081;-62
2022/01/24 03:26:06;;;;;;;26.52;13.05;;;;;;;;;;5150313;27;20543;-62
2022/01/24 03:28:32;;;;;;;23.98;12.23;;;;;;;;;;5151061;27;20123;-62
2022/01/24 03:30:59;;;;;;;28.23;13.57;;;;;;;;;;5150564;27;20134;-62
2022/01/24 03:33:25;;;;;;;28.08;12.70;;;;;;;;;;5151512;27;20055;-62
2022/01/24 03:35:51;;;;;;;24.25;12.70;;;;;;;;;;5145945;27;20047;-62
2022/01/24 03:38:18;;;;;;;24.35;13.57;;;;;;;;;;5130179;27;20078;-62
2022/01/24 03:40:44;;;;;;;24.35;13.35;;;;;;;;;;5130319;27;20051;-62
2022/01/24 03:43:10;;;;;;;25.75;14.13;;;;;;;;;;5130963;27;20056;-62
2022/01/24 03:46:08;;;;;;;26.65;13.45;;;;;;;;;;5142898;27;20047;-62
2022/01/24 03:48:45;;;;;;;27.10;14.07;;;;;;;;;;5143559;27;20527;-62
2022/01/24 03:51:13;;;;;;;25.17;13.52;;;;;;;;;;5142686;27;20072;-62
2022/01/24 03:53:39;;;;;;;28.17;14.20;;;;;;;;;;5144465;27;20180;-62
2022/01/24 03:56:06;;;;;;;29.10;14.48;;;;;;;;;;5148189;27;20051;-62
2022/01/24 03:58:33;;;;;;;28.65;15.02;;;;;;;;;;5133700;27;20543;-62
2022/01/24 04:01:00;;;;;;;30.08;15.27;;;;;;;;;;5129672;27;20054;-62
2022/01/24 04:03:26;;;;;;;29.90;16.40;;;;;;;;;;5142553;27;20051;-62
2022/01/24 04:05:53;;;;;;;33.65;17.48;;;;;;;;;;5142406;27;20051;-62
2022/01/24 04:08:20;;;;;;;35.92;18.02;;;;;;;;;;5149680;27;20130;-62
2022/01/24 04:10:50;;;;;;;34.05;17.80;;;;;;;;;;5150054;27;20047;-62
2022/01/24 04:13:38;;;;;;;34.97;18.13;;;;;;;;;;5139100;27;20059;-62
2022/01/24 04:21:20;;;;;;;39.47;19.30;;;;;;;;;;5129393;27;20051;-62
2022/01/24 04:23:52;;;;;;;35.90;18.02;;;;;;;;;;5135344;27;20059;-63
2022/01/24 04:26:18;;;;;;;37.42;19.15;;;;;;;;;;5132851;27;20468;-62
2022/01/24 04:28:45;;;;;;;36.85;19.30;;;;;;;;;;5149234;27;20051;-62
2022/01/24 04:31:11;;;;;;;43.17;20.25;;;;;;;;;;5142647;27;21478;-63
2022/01/24 04:33:38;;;;;;;39.90;20.33;;;;;;;;;;5134575;27;20083;-62
2022/01/24 04:36:04;;;;;;;39.33;20.08;;;;;;;;;;5147122;27;20058;-62
2022/01/24 04:38:31;;;;;;;37.35;19.83;;;;;;;;;;5133181;27;20046;-62
2022/01/24 04:41:05;;;;;;;41.63;21.17;;;;;;;;;;5143161;27;20054;-62
2022/01/24 04:46:09;;;;;;;40.40;20.58;;;;;;;;;;5132417;27;20054;-62
2022/01/24 04:56:34;;;;;;;43.60;21.67;;;;;;;;;;5147636;27;20104;-62
2022/01/24 04:59:06;;;;;;;38.78;19.13;;;;;;;;;;5145799;27;20055;-62
2022/01/24 05:01:32;;;;;;;41.88;21.33;;;;;;;;;;5149775;27;20149;-62
2022/01/24 05:03:58;;;;;;;41.28;22.27;;;;;;;;;;5149161;27;20043;-62
2022/01/24 05:06:25;;;;;;;44.55;22.40;;;;;;;;;;5135131;27;20428;-62
2022/01/24 05:08:51;;;;;;;42.75;20.17;;;;;;;;;;5135256;27;20047;-62
2022/01/24 05:11:24;;;;;;;38.05;20.98;;;;;;;;;;5146177;27;20105;-62
2022/01/24 05:24:32;;;;;;;34.53;20.05;;;;;;;;;;5145543;27;20054;-62
2022/01/24 05:26:58;;;;;;;37.55;20.05;;;;;;;;;;5152398;27;20053;-62
2022/01/24 05:29:24;;;;;;;36.38;20.25;;;;;;;;;;5153247;27;20456;-62
2022/01/24 05:31:50;;;;;;;38.60;20.83;;;;;;;;;;5152946;27;20057;-62
2022/01/24 05:34:17;;;;;;;36.75;20.42;;;;;;;;;;5152915;27;20059;-62
2022/01/24 05:36:43;;;;;;;37.30;21.05;;;;;;;;;;5139742;27;20052;-62
2022/01/24 05:39:11;;;;;;;39.38;20.95;;;;;;;;;;5132624;27;20054;-62
2022/01/24 05:41:38;;;;;;;45.13;21.73;;;;;;;;;;5134627;27;20062;-62
2022/01/24 05:44:07;;;;;;;46.63;23.05;;;;;;;;;;5152142;27;20498;-62
2022/01/24 05:46:34;;;;;;;42.35;23.30;;;;;;;;;;5135034;27;20058;-62
2022/01/24 05:49:01;;;;;;;41.45;22.42;;;;;;;;;;5152878;27;20051;-62
2022/01/24 05:51:28;;;;;;;38.88;22.42;;;;;;;;;;5152946;27;20502;-62
2022/01/24 05:53:55;;;;;;;37.33;22.33;;;;;;;;;;5141055;27;20048;-62
2022/01/24 05:56:21;;;;;;;41.72;23.20;;;;;;;;;;5131914;27;20061;-62
2022/01/24 05:58:47;;;;;;;39.25;21.90;;;;;;;;;;5135375;27;20154;-62
2022/01/24 06:01:14;;;;;;;44.10;22.52;;;;;;;;;;5131003;27;20189;-62
2022/01/24 06:03:41;;;;;;;41.78;23.30;;;;;;;;;;5148272;27;20058;-62
2022/01/24 06:06:08;;;;;;;45.95;23.95;;;;;;;;;;5138946;27;20051;-62
2022/01/24 06:08:34;;;;;;;48.20;24.60;;;;;;;;;;5131016;27;20138;-62
2022/01/24 06:11:01;;;;;;;46.83;24.73;;;;;;;;;;5132269;27;20054;-62
2022/01/24 06:13:27;;;;;;;45.38;23.83;;;;;;;;;;5136679;27;20546;-62
2022/01/24 06:15:54;;;;;;;45.20;24.58;;;;;;;;;;5151680;27;20059;-62
2022/01/24 06:18:21;;;;;;;43.92;22.88;;;;;;;;;;5146292;27;20130;-62
2022/01/24 06:20:47;;;;;;;45.88;23.35;;;;;;;;;;5131472;27;20054;-62
2022/01/24 06:23:14;;;;;;;40.70;23.67;;;;;;;;;;5130058;27;20052;-62
2022/01/24 06:25:41;;;;;;;37.78;22.13;;;;;;;;;;5130308;27;20079;-62
2022/01/24 06:28:08;;;;;;;38.55;21.77;;;;;;;;;;5130654;27;20056;-62
2022/01/24 06:30:34;;;;;;;40.70;23.38;;;;;;;;;;5131350;27;20057;-62
2022/01/24 06:33:00;;;;;;;42.95;23.08;;;;;;;;;;5131183;27;20056;-62
2022/01/24 06:35:27;;;;;;;38.70;22.88;;;;;;;;;;5142080;27;20122;-62
2022/01/24 06:37:53;;;;;;;42.35;23.65;;;;;;;;;;5147301;27;20055;-62
2022/01/24 06:40:19;;;;;;;43.58;24.13;;;;;;;;;;5137345;27;20062;-62
2022/01/24 06:42:45;;;;;;;41.72;22.90;;;;;;;;;;5130292;27;20052;-62
2022/01/24 06:45:12;;;;;;;43.63;23.20;;;;;;;;;;5140398;27;20436;-62
2022/01/24 06:47:40;;;;;;;42.65;24.15;;;;;;;;;;5147350;27;20150;-62
2022/01/24 06:50:07;;;;;;;41.13;23.53;;;;;;;;;;5134091;27;20138;-62
2022/01/24 06:52:33;;;;;;;45.33;24.33;;;;;;;;;;5151172;27;20408;-62
2022/01/24 06:54:59;;;;;;;41.65;24.20;;;;;;;;;;5130479;27;20531;-62
2022/01/24 06:57:27;;;;;;;44.67;24.30;;;;;;;;;;5133975;27;20052;-62
2022/01/24 06:59:53;;;;;;;47.13;25.50;;;;;;;;;;5147092;27;20062;-62
2022/01/24 07:02:19;;;;;;;45.03;23.77;;;;;;;;;;5151436;27;20051;-62
2022/01/24 07:04:46;;;;;;;41.92;24.35;;;;;;;;;;5131898;27;20059;-61
2022/01/24 07:07:16;;;;;;;46.58;25.30;;;;;;;;;;5142343;27;20051;-61
2022/01/24 07:09:44;;;;;;;50.22;24.60;;;;;;;;;;5149878;27;20656;-61
2022/01/24 07:12:10;;;;;;;45.83;25.17;;;;;;;;;;5138697;27;20047;-61
2022/01/24 07:14:39;;;;;;;48.90;26.50;;;;;;;;;;5138417;27;20059;-61
2022/01/24 07:17:27;;;;;;;47.33;24.08;;;;;;;;;;5142486;27;20058;-61
2022/01/24 07:19:54;;;;;;;54.30;25.88;;;;;;;;;;5118184;27;20062;-61
2022/01/24 07:22:20;;;;;;;49.97;25.23;;;;;;;;;;5149231;27;20051;-61
2022/01/24 07:24:46;;;;;;;49.10;25.95;;;;;;;;;;5145363;27;20078;-61
2022/01/24 07:27:13;;;;;;;47.45;26.08;;;;;;;;;;5129998;27;20178;-61
2022/01/24 07:29:39;;;;;;;48.55;26.02;;;;;;;;;;5130499;27;20055;-61
2022/01/24 07:32:06;;;;;;;49.80;26.85;;;;;;;;;;5130460;27;20047;-61
2022/01/24 07:34:32;;;;;;;51.63;26.83;;;;;;;;;;5156278;27;20081;-61
2022/01/24 07:36:58;;;;;;;47.97;25.52;;;;;;;;;;5132717;27;20079;-61
2022/01/24 07:39:25;;;;;;;43.25;23.50;;;;;;;;;;5132200;27;20059;-62
2022/01/24 07:41:52;;;;;;;49.25;25.55;;;;;;;;;;5139132;27;20104;-62
2022/01/24 07:44:20;;;;;;;40.72;23.95;;;;;;;;;;5150312;27;20524;-62
2022/01/24 07:46:47;;;;;;;42.28;22.25;;;;;;;;;;5134512;27;20060;-61
2022/01/24 07:49:14;;;;;;;43.35;23.30;;;;;;;;;;5131928;27;20051;-61
2022/01/24 07:51:40;;;;;;;38.15;21.38;;;;;;;;;;5138781;27;20047;-61
2022/01/24 07:54:08;;;;;;;40.30;21.48;;;;;;;;;;5143279;27;20055;-62
2022/01/24 07:56:35;;;;;;;36.20;20.55;;;;;;;;;;5130440;27;20134;-61
2022/01/24 07:59:01;;;;;;;42.33;21.92;;;;;;;;;;5133081;27;20056;-61
2022/01/24 08:01:28;;;;;;;40.60;21.83;;;;;;;;;;5132578;27;20135;-61
2022/01/24 08:03:54;;;;;;;39.25;22.48;;;;;;;;;;5130785;27;20061;-64
2022/01/24 08:06:21;;;;;;;41.53;22.95;;;;;;;;;;5138871;27;20096;-64
2022/01/24 08:08:51;;;;;;;39.65;22.67;;;;;;;;;;5150568;27;20051;-62
2022/01/24 08:11:18;;;;;;;41.53;23.02;;;;;;;;;;5135248;27;20055;-61
2022/01/24 08:13:45;;;;;;;41.15;23.20;;;;;;;;;;5131069;27;20141;-61
2022/01/24 08:16:11;;;;;;;46.33;23.63;;;;;;;;;;5134096;27;20042;-61
2022/01/24 08:18:38;;;;;;;46.25;25.30;;;;;;;;;;5149300;27;20496;-62
2022/01/24 08:21:04;;;;;;;35.88;20.70;;;;;;;;;;5149208;27;20039;-62
2022/01/24 08:23:30;;;;;;;38.58;21.40;;;;;;;;;;5149528;27;20076;-61
2022/01/24 08:25:57;;;;;;;42.08;22.83;;;;;;;;;;5149512;27;20051;-64
2022/01/24 08:28:23;;;;;;;36.30;21.40;;;;;;;;;;5148277;27;20049;-62
2022/01/24 08:30:49;;;;;;;39.45;22.38;;;;;;;;;;5149866;27;20138;-64
2022/01/24 08:33:16;;;;;;;37.63;21.80;;;;;;;;;;5138405;27;20067;-61
2022/01/24 08:35:42;;;;;;;42.78;23.42;;;;;;;;;;5134089;27;20095;-61
2022/01/24 08:38:09;;;;;;;38.90;22.30;;;;;;;;;;5128805;27;20414;-61
2022/01/24 08:40:38;;;;;;;46.97;25.45;;;;;;;;;;5129773;27;20048;-61
2022/01/24 08:43:06;;;;;;;43.58;23.13;;;;;;;;;;5138781;27;20570;-61
2022/01/24 08:45:58;;;;;;;45.20;23.90;;;;;;;;;;5133527;27;20882;-61
2022/01/24 08:48:25;;;;;;;42.80;23.33;;;;;;;;;;5141630;27;20058;-64
2022/01/24 08:50:53;;;;;;;40.45;22.13;;;;;;;;;;5140457;27;20047;-61
2022/01/24 08:53:25;;;;;;;42.08;22.88;;;;;;;;;;5131826;27;20522;-61
2022/01/24 08:55:51;;;;;;;41.88;23.08;;;;;;;;;;5132396;27;20047;-61
2022/01/24 08:58:18;;;;;;;41.08;23.08;;;;;;;;;;5134992;27;20604;-61
2022/01/24 09:00:45;;;;;;;41.10;22.10;;;;;;;;;;5131600;27;20055;-64
2022/01/24 09:03:12;;;;;;;41.75;22.83;;;;;;;;;;5133752;27;20058;-61
2022/01/24 09:05:40;;;;;;;40.53;22.10;;;;;;;;;;5144058;27;20505;-61
2022/01/24 09:08:07;;;;;;;36.35;20.83;;;;;;;;;;5144626;27;20070;-64
2022/01/24 09:10:34;;;;;;;37.47;20.33;;;;;;;;;;5159072;27;20051;-64
2022/01/24 09:13:01;;;;;;;39.22;20.85;;;;;;;;;;5151392;27;20152;-61
2022/01/24 09:15:27;;;;;;;34.20;19.67;;;;;;;;;;5167845;27;20154;-61
2022/01/24 09:17:54;;;;;;;30.50;17.50;;;;;;;;;;5154478;27;20145;-61
2022/01/24 09:20:20;;;;;;;33.55;18.65;;;;;;;;;;5142890;27;20050;-61
2022/01/24 09:22:49;;;;;;;29.92;17.45;;;;;;;;;;5135678;27;20146;-61
2022/01/24 09:25:16;;;;;;;31.48;18.35;;;;;;;;;;5132324;27;20059;-61
2022/01/24 09:27:43;;;;;;;32.38;18.45;;;;;;;;;;5133696;27;20054;-62
2022/01/24 09:30:10;;;;;;;30.98;18.27;;;;;;;;;;5138081;27;20497;-61
2022/01/24 09:32:37;;;;;;;29.70;18.33;;;;;;;;;;5143190;27;20141;-61
2022/01/24 09:35:05;;;;;;;32.42;18.48;;;;;;;;;;5142847;27;20134;-61
2022/01/24 09:37:32;;;;;;;32.58;18.50;;;;;;;;;;5146052;27;20057;-61
2022/01/24 09:39:58;;;;;;;32.10;18.70;;;;;;;;;;5162123;27;20061;-64
2022/01/24 09:42:25;;;;;;;30.73;19.15;;;;;;;;;;5151056;27;20058;-62
2022/01/24 09:44:51;;;;;;;33.80;18.30;;;;;;;;;;5151305;27;20166;-62
2022/01/24 09:47:18;;;;;;;30.95;18.98;;;;;;;;;;5141607;27;20085;-62
2022/01/24 09:49:48;;;;;;;31.17;18.27;;;;;;;;;;5131366;27;20105;-62
2022/01/24 09:52:14;;;;;;;34.83;17.67;;;;;;;;;;5134399;27;20052;-61
2022/01/24 09:54:41;;;;;;;29.83;17.63;;;;;;;;;;5147311;27;20063;-61
2022/01/24 09:57:07;;;;;;;31.92;18.13;;;;;;;;;;5151365;27;20146;-62
2022/01/24 09:59:34;;;;;;;30.08;18.48;;;;;;;;;;5168776;27;20066;-61
2022/01/24 10:02:01;;;;;;;30.13;17.98;;;;;;;;;;5146864;27;20513;-61
2022/01/24 10:04:29;;;;;;;31.00;18.67;;;;;;;;;;5163071;27;20051;-61
2022/01/24 10:06:56;;;;;;;31.73;19.17;;;;;;;;;;5144663;27;20062;-62
2022/01/24 10:09:46;;;;;;;30.30;18.15;;;;;;;;;;5148077;27;20062;-62
2022/01/24 10:16:24;;;;;;;33.28;18.45;;;;;;;;;;5137592;27;20057;-62
2022/01/24 10:18:09;;;;;;;31.45;19.38;;;;;;;;;;5159629;27;20055;-62
2022/01/24 10:20:38;;;;;;;32.97;18.77;;;;;;;;;;5158821;27;20055;-62
2022/01/24 10:23:16;;;;;;;30.90;18.30;;;;;;;;;;5167136;27;20053;-62
2022/01/24 10:25:48;;;;;;;31.90;18.02;;;;;;;;;;5140999;27;20063;-62
2022/01/24 10:28:22;;;;;;;32.33;18.73;;;;;;;;;;5137499;27;20055;-62
2022/01/24 10:30:51;;;;;;;33.70;19.17;;;;;;;;;;5165646;27;20047;-63
2022/01/24 10:33:17;;;;;;;;;;;;;;;;;;5155175;27;20055;-62
2022/01/24 10:35:46;;;;;;;30.33;17.90;;;;;;;;;;5167141;27;45842;-62
2022/01/24 10:38:17;;;;;;;29.77;18.05;;;;;;;;;;5140104;27;20574;-62
2022/01/24 10:43:17;;;;;;;30.15;19.35;;;;;;;;;;5153931;27;20416;-62
2022/01/24 10:45:44;;;;;;;30.95;18.63;;;;;;;;;;5148263;27;20050;-61
2022/01/24 10:48:11;;;;;;;28.17;17.02;;;;;;;;;;5161428;27;20056;-62
2022/01/24 10:50:38;;;;;;;30.77;18.95;;;;;;;;;;5152407;27;20061;-61
2022/01/24 10:53:12;;;;;;;30.25;17.83;;;;;;;;;;5146370;27;20138;-61
2022/01/24 10:55:45;;;;;;;28.85;17.17;;;;;;;;;;5134775;27;20062;-61
2022/01/24 10:58:14;;;;;;;25.20;15.85;;;;;;;;;;5150659;27;20517;-61
2022/01/24 11:00:41;;;;;;;25.77;15.40;;;;;;;;;;5150757;27;20122;-61
2022/01/24 11:03:14;;;;;;;24.15;14.95;;;;;;;;;;5163394;27;20952;-62
2022/01/24 11:05:43;;;;;;;25.08;14.60;;;;;;;;;;5144209;27;20118;-61
2022/01/24 11:08:11;;;;;;;23.33;14.48;;;;;;;;;;5161886;27;20847;-61
2022/01/24 11:10:40;;;;;;;23.80;13.85;;;;;;;;;;5145122;27;20048;-61
2022/01/24 11:13:06;;;;;;;24.48;15.15;;;;;;;;;;5162774;27;20141;-61
2022/01/24 11:15:33;;;;;;;24.25;14.75;;;;;;;;;;5145776;27;20051;-61
2022/01/24 11:18:01;;;;;;;26.92;15.48;;;;;;;;;;5157811;27;20135;-62
2022/01/24 11:20:31;;;;;;;26.40;15.40;;;;;;;;;;5159085;27;20976;-60
2022/01/24 11:23:00;;;;;;;23.85;14.55;;;;;;;;;;5150661;27;20050;-60
2022/01/24 11:25:28;;;;;;;21.85;14.18;;;;;;;;;;5143184;27;20051;-60
2022/01/24 11:27:55;;;;;;;23.67;14.53;;;;;;;;;;5137898;27;20641;-60
2022/01/24 11:30:22;;;;;;;23.92;14.00;;;;;;;;;;5134353;27;20055;-60
2022/01/24 11:32:58;;;;;;;26.67;14.38;;;;;;;;;;5156089;27;20046;-60
2022/01/24 11:35:28;;;;;;;24.98;14.27;;;;;;;;;;5146293;27;20056;-60
2022/01/24 11:37:56;;;;;;;27.05;14.35;;;;;;;;;;5135778;27;20056;-60
2022/01/24 11:40:23;;;;;;;23.30;14.43;;;;;;;;;;5135406;27;20068;-60
2022/01/24 11:42:50;;;;;;;24.02;14.05;;;;;;;;;;5135652;27;20043;-60
2022/01/24 11:45:55;;;;;;;25.23;14.35;;;;;;;;;;5144995;27;20058;-61
2022/01/24 11:48:22;;;;;;;23.42;14.43;;;;;;;;;;5138957;27;20059;-60
2022/01/24 11:50:58;;;;;;;21.15;12.43;;;;;;;;;;5155935;27;20042;-60
2022/01/24 11:53:28;;;;;;;23.58;13.27;;;;;;;;;;5137149;27;20056;-60
2022/01/24 11:55:55;;;;;;;23.58;14.15;;;;;;;;;;5146781;27;20051;-60
2022/01/24 11:58:23;;;;;;;23.02;13.35;;;;;;;;;;5142799;27;20140;-60
2022/01/24 12:00:51;;;;;;;24.48;14.40;;;;;;;;;;5129941;27;20056;-60
2022/01/24 12:03:23;;;;;;;23.47;14.90;;;;;;;;;;5134057;27;20074;-60
2022/01/24 12:05:53;;;;;;;22.25;13.15;;;;;;;;;;5156594;27;20155;-60
2022/01/24 12:08:43;;;;;;;21.83;12.25;;;;;;;;;;5148753;27;20176;-60
2022/01/24 12:11:18;;;;;;;22.60;13.05;;;;;;;;;;5137265;27;20062;-60
2022/01/24 12:13:53;;;;;;;21.70;13.13;;;;;;;;;;5147433;27;20053;-60
2022/01/24 12:16:31;;;;;;;22.35;12.70;;;;;;;;;;5142410;27;20502;-60
2022/01/24 12:18:59;;;;;;;20.25;11.55;;;;;;;;;;5145751;27;20503;-60
2022/01/24 12:21:26;;;;;;;20.60;11.40;;;;;;;;;;5129210;27;20081;-61
2022/01/24 12:23:54;;;;;;;22.13;12.23;;;;;;;;;;5134742;27;20051;-61
2022/01/24 12:26:40;;;;;;;22.77;12.02;;;;;;;;;;5146317;27;20062;-61
2022/01/24 12:29:08;;;;;;;21.85;12.55;;;;;;;;;;5142902;27;20124;-61
2022/01/24 12:31:48;;;;;;;19.65;11.70;;;;;;;;;;5155091;27;20069;-61
2022/01/24 12:34:21;;;;;;;20.85;11.05;;;;;;;;;;5132268;27;20052;-61
2022/01/24 12:37:00;;;;;;;20.33;11.40;;;;;;;;;;5139199;27;20051;-61
2022/01/24 12:39:27;;;;;;;20.20;11.38;;;;;;;;;;5137974;27;20577;-61
2022/01/24 12:41:59;;;;;;;19.73;11.48;;;;;;;;;;5156313;27;20573;-60
2022/01/24 12:47:03;;;;;;;22.63;12.18;;;;;;;;;;5136290;27;20058;-61
2022/01/24 12:49:31;;;;;;;20.05;11.63;;;;;;;;;;5147745;27;20068;-61
2022/01/24 12:52:04;;;;;;;19.80;11.50;;;;;;;;;;5160118;27;20062;-61
2022/01/24 12:54:33;;;;;;;18.52;11.45;;;;;;;;;;5156238;27;20053;-61
2022/01/24 12:57:05;;;;;;;22.85;11.18;;;;;;;;;;5150751;27;20055;-61
2022/01/24 12:59:32;;;;;;;18.55;10.95;;;;;;;;;;5142708;27;20051;-60
2022/01/24 13:02:01;;;;;;;18.80;11.02;;;;;;;;;;5144739;27;20043;-60
2022/01/24 13:04:37;;;;;;;21.45;11.68;;;;;;;;;;5147172;27;20062;-60
2022/01/24 13:07:04;;;;;;;19.20;11.02;;;;;;;;;;5133096;27;20055;-60
2022/01/24 13:09:30;;;;;;;20.65;11.25;;;;;;;;;;5143367;27;20147;-60
2022/01/24 13:12:01;;;;;;;19.48;10.95;;;;;;;;;;5162340;27;20136;-60
2022/01/24 13:25:09;;;;;;;23.67;11.85;;;;;;;;;;5152056;27;20061;-60
2022/01/24 13:27:42;;;;;;;18.67;10.90;;;;;;;;;;5168986;27;20053;-60
2022/01/24 13:30:13;;;;;;;18.48;11.10;;;;;;;;;;5129866;27;20058;-60
2022/01/24 13:32:57;;;;;;;21.40;10.82;;;;;;;;;;5154848;27;20050;-61
2022/01/24 13:35:37;;;;;;;19.30;10.95;;;;;;;;;;5142729;27;20125;-60
2022/01/24 13:38:06;;;;;;;19.25;10.95;;;;;;;;;;5156342;27;20063;-61
2022/01/24 13:40:54;;;;;;;19.35;11.10;;;;;;;;;;5155267;27;20141;-60
2022/01/24 13:43:34;;;;;;;20.30;10.77;;;;;;;;;;5153460;27;20520;-60
2022/01/24 13:46:01;;;;;;;19.65;10.82;;;;;;;;;;5150913;27;20051;-61
2022/01/24 13:48:28;;;;;;;20.23;11.32;;;;;;;;;;5148870;27;20535;-61
2022/01/24 13:50:57;;;;;;;20.50;11.15;;;;;;;;;;5136585;27;20139;-61
2022/01/24 13:53:23;;;;;;;;;;;;;;;;;;5146840;27;20051;-60
2022/01/24 13:55:49;;;;;;;18.08;10.63;;;;;;;;;;5140389;27;45546;-60
2022/01/24 13:58:23;;;;;;;21.80;10.73;;;;;;;;;;5143994;27;20580;-61
2022/01/24 14:00:56;;;;;;;23.52;12.07;;;;;;;;;;5144059;27;20047;-60
2022/01/24 14:03:22;;;;;;;20.48;10.75;;;;;;;;;;5148827;27;20047;-60
2022/01/24 14:06:09;;;;;;;23.23;11.35;;;;;;;;;;5149930;27;20054;-60
2022/01/24 14:08:41;;;;;;;20.58;11.85;;;;;;;;;;5141454;27;20142;-61
2022/01/24 14:11:15;;;;;;;20.17;11.75;;;;;;;;;;5162911;27;20067;-61
2022/01/24 14:13:49;;;;;;;18.55;10.10;;;;;;;;;;5141527;27;20049;-60
2022/01/24 14:16:34;;;;;;;19.73;11.10;;;;;;;;;;5160783;27;20235;-60
2022/01/24 14:19:02;;;;;;;20.30;10.85;;;;;;;;;;5149427;27;20061;-60
2022/01/24 14:21:29;;;;;;;18.00;11.90;;;;;;;;;;5150255;27;20139;-60
2022/01/24 14:23:55;;;;;;;22.70;10.82;;;;;;;;;;5148377;27;20045;-60
2022/01/24 14:26:22;;;;;;;19.58;10.88;;;;;;;;;;5164915;27;20095;-60
2022/01/24 14:29:04;;;;;;;18.83;11.07;;;;;;;;;;5155673;27;20047;-60
2022/01/24 14:31:31;;;;;;;17.38;10.25;;;;;;;;;;5139526;27;20048;-61
2022/01/24 14:34:03;;;;;;;19.58;11.20;;;;;;;;;;5143827;27;20051;-61
2022/01/24 14:36:29;;;;;;;18.30;10.68;;;;;;;;;;5150208;27;20085;-62
2022/01/24 14:38:59;;;;;;;;;;;;;;;;;;5138028;27;20055;-61
2022/01/24 14:41:30;;;;;;;19.90;11.13;;;;;;;;;;5165317;27;45940;-61
2022/01/24 14:46:43;;;;;;;20.05;10.82;;;;;;;;;;5150183;27;20061;-61
2022/01/24 14:49:11;;;;;;;18.27;10.48;;;;;;;;;;5146894;27;20062;-61
2022/01/24 14:51:39;;;;;;;19.70;11.38;;;;;;;;;;5136482;27;20054;-61
2022/01/24 14:54:06;;;;;;;19.58;10.85;;;;;;;;;;5163707;27;20069;-61
2022/01/24 14:56:34;;;;;;;18.60;10.27;;;;;;;;;;5161678;27;20589;-61
2022/01/24 14:59:00;;;;;;;20.75;11.07;;;;;;;;;;5148091;27;20141;-61
2022/01/24 15:01:27;;;;;;;19.48;10.57;;;;;;;;;;5152024;27;20051;-61
2022/01/24 15:03:54;;;;;;;21.50;11.23;;;;;;;;;;5137952;27;20062;-61
2022/01/24 15:06:20;;;;;;;18.25;10.48;;;;;;;;;;5135524;27;20541;-61
2022/01/24 15:08:48;;;;;;;18.52;11.45;;;;;;;;;;5156403;27;20488;-61
2022/01/24 15:11:17;;;;;;;21.33;11.80;;;;;;;;;;5148084;27;20055;-61
2022/01/24 15:13:54;;;;;;;17.30;10.27;;;;;;;;;;5165739;27;20106;-61
2022/01/24 15:16:30;;;;;;;21.77;11.35;;;;;;;;;;5145904;27;20062;-61
2022/01/24 15:24:37;;;;;;;19.33;10.52;;;;;;;;;;5159575;27;20047;-61
2022/01/24 15:27:03;;;;;;;21.05;11.68;;;;;;;;;;5149765;27;20052;-61
2022/01/24 15:29:30;;;;;;;23.45;11.82;;;;;;;;;;5166511;27;20530;-61
2022/01/24 15:31:57;;;;;;;21.98;11.57;;;;;;;;;;5155719;27;20051;-61
2022/01/24 15:34:25;;;;;;;16.17;11.00;;;;;;;;;;5156500;27;20080;-61
2022/01/24 15:36:51;;;;;;;18.55;11.27;;;;;;;;;;5142042;27;20294;-61
2022/01/24 15:39:18;;;;;;;17.23;10.65;;;;;;;;;;5135997;27;20921;-61
2022/01/24 15:41:48;;;;;;;19.08;12.02;;;;;;;;;;5140356;27;20050;-61
2022/01/24 15:47:30;;;;;;;19.08;11.48;;;;;;;;;;5135463;27;20058;-61
2022/01/24 15:49:53;;;;;;;20.45;12.82;;;;;;;;;;5132192;27;20527;-61
2022/01/24 15:52:19;;;;;;;19.20;12.57;;;;;;;;;;5131467;27;20426;-61
2022/01/24 15:54:51;;;;;;;20.17;13.13;;;;;;;;;;5147264;27;20072;-61
2022/01/24 16:00:03;;;;;;;22.83;13.52;;;;;;;;;;5151350;27;20174;-61
2022/01/24 16:02:30;;;;;;;20.90;13.55;;;;;;;;;;5154175;27;20051;-61
2022/01/24 16:04:58;;;;;;;22.65;14.38;;;;;;;;;;5154046;27;20050;-61
2022/01/24 16:07:24;;;;;;;23.70;15.10;;;;;;;;;;5137680;27;20060;-61
2022/01/24 16:09:51;;;;;;;22.38;14.00;;;;;;;;;;5153716;27;20055;-61
2022/01/24 16:12:17;;;;;;;21.63;14.88;;;;;;;;;;5157227;27;20092;-61
2022/01/24 16:14:43;;;;;;;23.33;15.38;;;;;;;;;;5156602;27;20146;-61
2022/01/24 16:17:10;;;;;;;23.02;15.75;;;;;;;;;;5162326;27;20057;-61
2022/01/24 16:19:40;;;;;;;24.77;16.08;;;;;;;;;;5148951;27;20054;-61
2022/01/24 16:27:39;;;;;;;22.75;15.00;;;;;;;;;;5136681;27;20312;-61
2022/01/24 16:30:06;;;;;;;23.77;15.10;;;;;;;;;;5158043;27;20440;-62